Time;durP1;ratioP1;P1;durP2;ratioP2;P2;SDS_P1;SDS_P2;PMS_P1;PMS_P2;Temp;Humidity;BMP_temperature;BMP_pressure;BME280_temperature;BME280_humidity;BME280_pressure;Samples;Min_cycle;Max_cycle;Signal;HPM_P1;HPM_P2
2021/12/11 00:01:42;;;;;;;22.00;6.97;;;;;;;-13.52;61.33;101515.63;5031370;28;20112;-46
2021/12/11 00:04:13;;;;;;;18.40;6.32;;;;;;;-13.56;61.68;101514.59;5031368;28;20091;-46
2021/12/11 00:06:46;;;;;;;10.95;3.60;;;;;;;-13.53;61.01;101509.56;5029779;28;20037;-52
2021/12/11 00:09:20;;;;;;;16.27;6.75;;;;;;;-13.60;61.79;101517.84;5031144;28;20029;-47
2021/12/11 00:11:52;;;;;;;14.95;5.25;;;;;;;-13.59;61.50;101519.59;5031383;28;20045;-43
2021/12/11 00:14:19;;;;;;;12.90;4.53;;;;;;;-13.58;61.32;101516.22;5031168;28;20393;-44
2021/12/11 00:16:45;;;;;;;16.98;5.93;;;;;;;-13.67;61.86;101524.41;5031286;28;20033;-46
2021/12/11 00:19:21;;;;;;;15.25;5.95;;;;;;;-13.74;61.11;101471.75;5031356;28;20030;-44
2021/12/11 00:21:48;;;;;;;13.52;5.40;;;;;;;-13.61;61.34;101519.53;5030697;28;20040;-46
2021/12/11 00:24:24;;;;;;;9.45;3.53;;;;;;;-13.81;61.46;101482.56;5030606;28;20071;-50
2021/12/11 00:26:55;;;;;;;9.48;4.22;;;;;;;-13.71;61.61;101517.34;5031536;28;20037;-47
2021/12/11 00:29:23;;;;;;;10.52;3.58;;;;;;;-13.68;61.37;101514.03;5030164;28;20074;-45
2021/12/11 00:31:54;;;;;;;9.13;3.67;;;;;;;-13.64;61.11;101506.50;5030474;28;20035;-48
2021/12/11 00:34:22;;;;;;;18.95;6.57;;;;;;;-13.71;61.51;101515.66;5030884;28;20080;-48
2021/12/11 00:36:57;;;;;;;14.68;6.63;;;;;;;-13.73;61.80;101527.59;5031164;28;20042;-51
2021/12/11 00:39:23;;;;;;;15.63;6.30;;;;;;;-13.56;61.38;101524.88;5030867;28;20367;-47
2021/12/11 00:41:54;;;;;;;12.40;5.15;;;;;;;-13.51;61.28;101512.22;5030408;28;20034;-47
2021/12/11 00:44:31;;;;;;;12.25;4.90;;;;;;;-13.59;60.82;101509.28;5031185;28;20026;-50
2021/12/11 00:47:10;;;;;;;12.05;4.95;;;;;;;-13.93;61.43;101469.13;5035183;28;20033;-46
2021/12/11 00:49:53;;;;;;;8.15;3.80;;;;;;;-13.64;61.24;101510.78;5034090;28;20037;-47
2021/12/11 00:52:42;;;;;;;7.82;3.03;;;;;;;-13.65;61.41;101509.03;5034531;28;20036;-46
2021/12/11 00:55:32;;;;;;;12.07;4.82;;;;;;;-13.85;61.80;101506.41;5034136;28;20041;-49
2021/12/11 00:58:21;;;;;;;12.75;5.47;;;;;;;-13.78;61.44;101517.88;5034803;28;20041;-44
2021/12/11 01:00:57;;;;;;;11.02;3.80;;;;;;;-13.77;60.66;101505.06;5033043;28;20033;-45
2021/12/11 01:03:39;;;;;;;4.22;2.20;;;;;;;-14.04;60.92;101464.38;5034565;28;20037;-48
2021/12/11 01:06:22;;;;;;;6.32;2.70;;;;;;;-13.80;60.95;101507.50;5034424;28;20454;-46
2021/12/11 01:08:55;;;;;;;8.93;4.75;;;;;;;-14.01;60.95;101505.69;5034328;28;20382;-46
2021/12/11 01:11:37;;;;;;;14.50;6.07;;;;;;;-14.03;61.31;101511.59;5033929;28;20025;-52
2021/12/11 01:14:20;;;;;;;11.13;5.15;;;;;;;-14.36;61.67;101442.25;5032964;28;20068;-49
2021/12/11 01:17:00;;;;;;;11.10;5.13;;;;;;;-14.27;61.67;101473.59;5034515;28;20037;-45
2021/12/11 01:19:28;;;;;;;17.67;6.68;;;;;;;-14.09;61.43;101507.03;5034013;28;20036;-49
2021/12/11 01:21:58;;;;;;;6.30;2.53;;;;;;;-14.02;61.55;101519.38;5034077;28;20522;-48
2021/12/11 01:24:42;;;;;;;17.30;6.28;;;;;;;-14.08;61.23;101524.25;5034322;28;20054;-48
2021/12/11 01:27:10;;;;;;;14.07;5.60;;;;;;;-14.20;61.64;101521.97;5034084;28;20486;-49
2021/12/11 01:29:36;;;;;;;12.85;4.65;;;;;;;-14.26;62.27;101515.63;5032428;28;20440;-51
2021/12/11 01:32:05;;;;;;;15.40;6.53;;;;;;;-14.23;62.22;101526.06;5033728;28;20075;-48
2021/12/11 01:34:31;;;;;;;14.85;6.22;;;;;;;-14.24;62.37;101512.34;5033561;28;20112;-49
2021/12/11 01:36:57;;;;;;;10.73;4.50;;;;;;;-14.13;61.97;101520.56;5033939;28;20528;-47
2021/12/11 01:39:27;;;;;;;17.88;6.40;;;;;;;-14.18;62.02;101522.06;5033354;28;20072;-47
2021/12/11 01:41:55;;;;;;;15.80;6.63;;;;;;;-14.16;62.36;101533.28;5033313;28;20029;-44
2021/12/11 01:44:29;;;;;;;17.80;7.57;;;;;;;-14.36;62.57;101499.78;5033523;28;20064;-44
2021/12/11 01:47:09;;;;;;;18.02;6.20;;;;;;;-14.10;62.51;101530.09;5033791;28;20088;-51
2021/12/11 01:49:36;;;;;;;11.20;4.63;;;;;;;-13.97;61.91;101516.16;5033348;28;20044;-51
2021/12/11 01:52:37;;;;;;;7.45;3.22;;;;;;;-13.83;61.08;101524.53;5032592;28;20029;-50
2021/12/11 01:55:09;;;;;;;14.95;7.05;;;;;;;-14.21;60.74;101489.31;5033066;28;20040;-48
2021/12/11 01:57:34;;;;;;;13.93;5.63;;;;;;;-14.19;61.27;101518.56;5033693;28;20021;-52
2021/12/11 02:00:06;;;;;;;16.77;7.25;;;;;;;-14.21;61.52;101545.94;5032211;28;20079;-50
2021/12/11 02:02:43;;;;;;;15.05;5.60;;;;;;;-14.09;61.15;101549.94;5033349;28;20025;-48
2021/12/11 02:05:11;;;;;;;18.45;6.72;;;;;;;-14.33;60.81;101510.19;5032348;28;20044;-48
2021/12/11 02:07:50;;;;;;;13.38;5.80;;;;;;;-14.40;61.54;101532.97;5033026;28;20033;-49
2021/12/11 02:10:33;;;;;;;17.38;6.70;;;;;;;-14.33;61.76;101538.50;5032989;28;20461;-49
2021/12/11 02:12:59;;;;;;;11.45;4.45;;;;;;;-14.38;61.81;101534.84;5032596;28;20025;-49
2021/12/11 02:15:34;;;;;;;10.32;4.82;;;;;;;-14.36;61.23;101533.22;5033284;28;20103;-50
2021/12/11 02:18:12;;;;;;;9.48;3.95;;;;;;;-14.37;61.44;101541.75;5033634;28;20034;-45
2021/12/11 02:20:48;;;;;;;21.60;7.68;;;;;;;-14.37;61.60;101543.41;5033017;28;20025;-47
2021/12/11 02:23:14;;;;;;;14.15;4.47;;;;;;;-14.30;61.26;101541.22;5033326;28;20381;-49
2021/12/11 02:25:44;;;;;;;15.13;6.55;;;;;;;-14.70;61.74;101484.41;5032308;28;20095;-51
2021/12/11 02:28:16;;;;;;;9.07;3.88;;;;;;;-14.46;62.13;101549.88;5032520;28;20029;-45
2021/12/11 02:31:03;;;;;;;7.32;2.17;;;;;;;-14.74;62.17;101493.66;5032949;28;20040;-47
2021/12/11 02:33:35;;;;;;;8.75;4.53;;;;;;;-14.33;61.52;101546.22;5033245;28;20117;-50
2021/12/11 02:36:10;;;;;;;14.13;4.72;;;;;;;-14.42;61.86;101553.50;5031482;28;20393;-49
2021/12/11 02:39:03;;;;;;;9.38;4.28;;;;;;;-14.35;62.06;101557.25;5032569;28;20108;-47
2021/12/11 02:41:40;;;;;;;5.75;2.58;;;;;;;-14.30;61.42;101556.66;5032021;28;20473;-46
2021/12/11 02:44:18;;;;;;;16.55;6.75;;;;;;;-14.53;61.60;101554.66;5032516;28;20040;-46
2021/12/11 02:47:12;;;;;;;9.30;3.53;;;;;;;-14.54;62.24;101547.75;5031844;28;20478;-44
2021/12/11 02:50:03;;;;;;;10.25;4.18;;;;;;;-14.47;62.42;101548.13;5032382;28;20068;-46
2021/12/11 02:52:59;;;;;;;7.47;3.67;;;;;;;-14.52;61.58;101539.31;5014951;28;20451;-46
2021/12/11 02:55:40;;;;;;;15.63;5.55;;;;;;;-14.61;61.85;101537.16;5031620;28;20033;-47
2021/12/11 02:58:25;;;;;;;13.88;6.60;;;;;;;-14.49;61.64;101544.59;5031982;28;20367;-46
2021/12/11 03:00:55;;;;;;;4.18;1.58;;;;;;;-14.35;61.19;101540.13;5032357;28;20035;-48
2021/12/11 03:03:34;;;;;;;16.27;5.43;;;;;;;-14.59;61.54;101532.97;5032083;28;20053;-48
2021/12/11 03:06:09;;;;;;;13.13;5.72;;;;;;;-14.68;61.94;101532.53;5031849;28;20432;-50
2021/12/11 03:08:35;;;;;;;15.70;6.25;;;;;;;-14.64;61.77;101546.41;5031283;28;20032;-49
2021/12/11 03:11:05;;;;;;;10.90;4.80;;;;;;;-14.40;61.29;101557.03;5031438;28;20029;-51
2021/12/11 03:13:34;;;;;;;14.48;5.63;;;;;;;-14.61;61.59;101529.44;5032267;28;20053;-53
2021/12/11 03:16:01;;;;;;;18.73;6.25;;;;;;;-14.73;61.88;101540.03;5031661;28;20037;-50
2021/12/11 03:18:27;;;;;;;17.60;7.00;;;;;;;-14.91;62.10;101491.16;5031304;28;20428;-50
2021/12/11 03:20:53;;;;;;;8.98;3.38;;;;;;;-14.60;61.73;101533.78;5031770;28;20047;-48
2021/12/11 03:23:20;;;;;;;13.77;4.97;;;;;;;-14.52;61.72;101531.59;5031291;28;20021;-51
2021/12/11 03:25:47;;;;;;;15.48;5.95;;;;;;;-14.65;61.78;101540.38;5029881;28;20046;-49
2021/12/11 03:28:16;;;;;;;13.75;5.57;;;;;;;-14.55;61.96;101545.97;5031544;28;20481;-47
2021/12/11 03:30:51;;;;;;;6.40;2.85;;;;;;;-14.45;61.62;101538.78;5031228;28;20044;-53
2021/12/11 03:33:18;;;;;;;11.60;4.68;;;;;;;-14.50;62.05;101545.41;5031698;28;20501;-49
2021/12/11 03:35:45;;;;;;;10.80;4.65;;;;;;;-14.51;61.63;101540.16;5030026;28;20482;-53
2021/12/11 03:38:11;;;;;;;7.47;2.97;;;;;;;-14.45;61.92;101563.66;5030092;28;20059;-51
2021/12/11 03:40:38;;;;;;;15.88;5.50;;;;;;;-14.58;61.88;101549.31;5031439;28;20041;-46
2021/12/11 03:43:08;;;;;;;15.05;6.00;;;;;;;-14.75;61.61;101502.19;5031205;28;20447;-50
2021/12/11 03:45:37;;;;;;;8.40;3.60;;;;;;;-14.50;61.67;101541.94;5031546;28;20022;-46
2021/12/11 03:48:08;;;;;;;12.57;6.20;;;;;;;-14.64;61.91;101538.69;5031006;28;20056;-47
2021/12/11 03:50:35;;;;;;;8.70;3.30;;;;;;;-14.58;62.16;101551.88;5031385;28;20467;-46
2021/12/11 03:53:01;;;;;;;15.05;5.90;;;;;;;-14.60;62.14;101551.78;5031374;28;20179;-47
2021/12/11 03:55:36;;;;;;;12.27;4.55;;;;;;;-14.51;62.08;101556.50;5030953;28;20152;-52
2021/12/11 03:58:04;;;;;;;14.27;5.45;;;;;;;-14.55;62.10;101543.41;5013438;28;20108;-46
2021/12/11 04:00:34;;;;;;;11.85;4.30;;;;;;;-14.48;62.21;101532.59;5031510;28;20540;-51
2021/12/11 04:03:04;;;;;;;15.40;6.50;;;;;;;-14.45;61.33;101533.66;5030115;28;20512;-48
2021/12/11 04:05:37;;;;;;;5.45;3.40;;;;;;;-14.34;60.97;101557.31;5031409;28;20059;-49
2021/12/11 04:08:06;;;;;;;8.35;3.63;;;;;;;-14.42;60.90;101538.94;5031335;28;20044;-48
2021/12/11 04:10:32;;;;;;;8.60;3.85;;;;;;;-14.60;61.57;101528.63;5030882;28;20032;-46
2021/12/11 04:13:02;;;;;;;11.43;4.40;;;;;;;-14.47;61.43;101534.38;5030753;28;20366;-46
2021/12/11 04:15:28;;;;;;;10.32;4.40;;;;;;;-14.53;61.71;101528.94;5030655;28;20105;-52
2021/12/11 04:17:54;;;;;;;14.60;6.30;;;;;;;-14.53;61.86;101528.94;5031240;28;20049;-53
2021/12/11 04:20:24;;;;;;;12.10;4.40;;;;;;;-14.50;61.91;101537.69;5031737;28;20442;-51
2021/12/11 04:22:50;;;;;;;16.52;5.70;;;;;;;-14.46;61.78;101536.16;5034745;28;20476;-51
2021/12/11 04:25:18;;;;;;;13.50;5.57;;;;;;;-14.65;62.42;101524.97;5035324;28;20096;-47
2021/12/11 04:27:45;;;;;;;16.33;6.57;;;;;;;-14.59;62.45;101516.63;5034126;28;20072;-50
2021/12/11 04:30:14;;;;;;;11.82;3.45;;;;;;;-14.43;61.80;101518.28;5034574;28;20029;-47
2021/12/11 04:32:41;;;;;;;13.98;6.13;;;;;;;-14.45;62.09;101522.50;5034533;28;20037;-52
2021/12/11 04:35:09;;;;;;;7.45;2.72;;;;;;;-14.44;61.83;101530.25;5033889;28;20025;-51
2021/12/11 04:37:37;;;;;;;17.20;6.47;;;;;;;-14.56;62.32;101534.81;5033855;28;20033;-52
2021/12/11 04:40:09;;;;;;;14.38;5.80;;;;;;;-14.57;62.46;101525.34;5034681;28;20022;-49
2021/12/11 04:42:49;;;;;;;6.20;3.30;;;;;;;-14.28;61.65;101528.44;5034497;28;20026;-48
2021/12/11 04:45:33;;;;;;;13.82;4.38;;;;;;;-14.40;61.80;101515.88;5034921;28;20025;-50
2021/12/11 04:48:19;;;;;;;15.02;5.90;;;;;;;-14.54;62.02;101522.91;5034768;28;20060;-49
2021/12/11 04:51:25;;;;;;;10.73;3.92;;;;;;;-14.54;62.32;101516.88;5034463;28;20353;-46
2021/12/11 05:09:37;;;;;;;14.63;4.57;;;;;;;-14.37;61.78;101541.75;5033703;28;20470;-48
2021/12/11 05:12:28;;;;;;;11.43;3.97;;;;;;;-14.41;62.09;101539.84;5034036;28;20120;-49
2021/12/11 05:14:54;;;;;;;14.23;5.65;;;;;;;-14.47;62.11;101532.69;5034239;28;20397;-50
2021/12/11 05:17:20;;;;;;;7.05;3.45;;;;;;;-14.32;61.88;101545.41;5034250;28;20030;-48
2021/12/11 05:19:47;;;;;;;14.45;5.75;;;;;;;-14.43;61.85;101523.44;5033989;28;20025;-49
2021/12/11 05:22:15;;;;;;;13.50;6.00;;;;;;;-14.43;62.20;101536.31;5033904;28;20051;-49
2021/12/11 05:24:45;;;;;;;14.73;6.20;;;;;;;-14.38;62.16;101526.22;5033672;28;20041;-50
2021/12/11 05:27:10;;;;;;;11.50;5.75;;;;;;;-14.25;62.42;101532.84;5033881;28;20034;-48
2021/12/11 05:29:37;;;;;;;13.40;4.57;;;;;;;-14.08;61.79;101531.97;5033586;28;20040;-50
2021/12/11 05:32:06;;;;;;;10.00;4.45;;;;;;;-13.90;60.83;101508.75;5032929;28;20038;-52
2021/12/11 05:34:32;;;;;;;8.48;3.35;;;;;;;-13.97;61.10;101518.72;5033861;28;20132;-53
2021/12/11 05:36:58;;;;;;;18.55;6.55;;;;;;;-14.02;61.16;101531.38;5033756;28;20076;-53
2021/12/11 05:39:24;;;;;;;14.05;6.13;;;;;;;-14.06;60.58;101503.72;5033436;28;20037;-52
2021/12/11 05:41:50;;;;;;;5.63;2.70;;;;;;;-13.93;60.45;101528.34;5032219;28;20038;-49
2021/12/11 05:44:18;;;;;;;14.20;5.70;;;;;;;-14.06;60.80;101543.22;5032345;28;20484;-49
2021/12/11 05:46:45;;;;;;;20.17;5.22;;;;;;;-13.98;60.82;101525.56;5033318;28;20025;-48
2021/12/11 05:49:11;;;;;;;15.50;6.10;;;;;;;-14.04;60.59;101520.13;5033869;28;20519;-48
2021/12/11 05:51:39;;;;;;;12.90;6.15;;;;;;;-14.52;61.24;101477.56;5033121;28;20465;-49
2021/12/11 05:54:10;;;;;;;14.45;5.65;;;;;;;-14.53;61.52;101469.78;5033443;28;20447;-52
2021/12/11 05:56:38;;;;;;;5.43;3.42;;;;;;;-14.28;60.82;101474.41;5033833;28;20029;-49
2021/12/11 05:59:06;;;;;;;16.88;7.15;;;;;;;-14.06;61.11;101532.06;5031961;28;20087;-53
2021/12/11 06:01:49;;;;;;;13.05;5.18;;;;;;;-14.13;61.44;101521.44;5032991;28;20030;-50
2021/12/11 06:04:20;;;;;;;11.82;4.70;;;;;;;-13.97;60.83;101524.75;5033531;28;20101;-49
2021/12/11 06:06:47;;;;;;;15.00;7.00;;;;;;;-13.91;60.50;101529.31;5033068;28;20033;-51
2021/12/11 06:09:15;;;;;;;13.23;5.32;;;;;;;-13.88;60.73;101532.03;5033464;28;20040;-50
2021/12/11 06:11:44;;;;;;;18.20;6.15;;;;;;;-13.83;60.47;101547.69;5033507;28;20026;-54
2021/12/11 06:14:10;;;;;;;9.95;4.00;;;;;;;-13.80;60.20;101533.25;5032333;28;20084;-49
2021/12/11 06:16:36;;;;;;;9.98;5.13;;;;;;;-13.71;59.35;101548.25;5032779;28;20385;-52
2021/12/11 06:19:05;;;;;;;9.55;3.75;;;;;;;-13.77;59.51;101546.25;5031930;28;20053;-46
2021/12/11 06:21:33;;;;;;;15.52;4.80;;;;;;;-13.77;59.31;101535.09;5032898;28;20428;-50
2021/12/11 06:23:58;;;;;;;13.60;5.63;;;;;;;-13.71;59.58;101545.69;5033159;28;20061;-48
2021/12/11 06:26:24;;;;;;;17.95;6.88;;;;;;;-13.79;59.68;101552.19;5032645;28;20640;-49
2021/12/11 06:28:50;;;;;;;4.75;2.97;;;;;;;-13.62;60.12;101551.28;5032939;28;20037;-50
2021/12/11 06:31:19;;;;;;;14.43;5.72;;;;;;;-13.69;59.50;101538.03;5033282;28;20029;-53
2021/12/11 06:33:50;;;;;;;13.90;5.63;;;;;;;-13.47;58.88;101561.38;5033449;28;20029;-51
2021/12/11 06:36:18;;;;;;;18.52;7.97;;;;;;;-13.76;59.11;101511.97;5032823;28;20041;-52
2021/12/11 06:38:47;;;;;;;17.60;7.35;;;;;;;-13.45;59.93;101556.28;5032865;28;20033;-49
2021/12/11 06:41:16;;;;;;;12.48;4.65;;;;;;;-13.17;58.80;101545.50;5032958;28;20025;-51
2021/12/11 06:43:42;;;;;;;5.25;2.80;;;;;;;-13.10;58.57;101540.59;5032087;28;20029;-53
2021/12/11 06:46:08;;;;;;;17.38;6.32;;;;;;;-13.03;57.94;101545.19;5032614;28;20033;-51
2021/12/11 06:48:34;;;;;;;13.82;5.85;;;;;;;-12.93;57.79;101543.91;5032341;28;20030;-51
2021/12/11 06:51:01;;;;;;;7.88;2.65;;;;;;;-12.67;56.90;101545.03;5032543;28;20036;-50
2021/12/11 06:53:50;;;;;;;10.35;4.00;;;;;;;-12.52;56.83;101537.03;5032728;28;20030;-49
2021/12/11 06:56:18;;;;;;;22.35;7.63;;;;;;;-12.52;56.77;101533.59;5032657;28;20026;-49
2021/12/11 06:58:44;;;;;;;17.52;5.75;;;;;;;-12.23;56.59;101544.22;5032712;28;20417;-46
2021/12/11 07:01:11;;;;;;;10.13;4.40;;;;;;;-12.28;55.28;101482.97;5032341;28;20033;-51
2021/12/11 07:03:40;;;;;;;17.13;6.03;;;;;;;-11.88;54.93;101527.50;5030901;28;20387;-52
2021/12/11 07:06:06;;;;;;;11.60;5.68;;;;;;;-12.07;55.31;101487.19;5031988;28;20030;-55
2021/12/11 07:08:32;;;;;;;16.17;7.18;;;;;;;-11.62;54.95;101534.47;5031807;28;20040;-49
2021/12/11 07:10:59;;;;;;;11.25;5.60;;;;;;;-11.39;54.27;101528.47;5032079;28;20033;-54
2021/12/11 07:13:25;;;;;;;15.88;6.20;;;;;;;-11.42;54.16;101523.19;5031817;28;20457;-48
2021/12/11 07:15:52;;;;;;;15.27;7.00;;;;;;;-11.39;54.05;101525.88;5031744;28;20108;-49
2021/12/11 07:18:19;;;;;;;9.13;4.85;;;;;;;-11.34;54.17;101518.31;5030683;28;20425;-48
2021/12/11 07:20:45;;;;;;;10.10;4.90;;;;;;;-11.30;53.79;101540.00;5031735;28;20031;-57
2021/12/11 07:23:11;;;;;;;14.73;6.15;;;;;;;-11.42;54.65;101537.84;5031292;28;20030;-55
2021/12/11 07:25:45;;;;;;;13.05;6.00;;;;;;;-11.61;54.27;101495.78;5031465;28;20052;-54
2021/12/11 07:28:11;;;;;;;;;;;;;;;-11.21;54.19;101557.53;5031917;28;20473;-55
2021/12/11 07:30:41;;;;;;;16.80;6.72;;;;;;;-11.55;53.54;101549.41;5031287;28;20354;-55
2021/12/11 07:33:09;;;;;;;17.02;5.97;;;;;;;-11.70;53.57;101547.09;5029737;28;20049;-56
2021/12/11 07:35:36;;;;;;;17.88;7.70;;;;;;;-11.85;54.52;101547.41;5031037;28;20064;-52
2021/12/11 07:38:02;;;;;;;16.15;7.15;;;;;;;-11.93;55.10;101536.78;5031301;28;20099;-58
2021/12/11 07:40:32;;;;;;;14.05;5.10;;;;;;;-11.71;54.96;101553.09;5029900;28;20440;-55
2021/12/11 07:42:58;;;;;;;20.10;7.25;;;;;;;-11.63;54.83;101540.47;5031329;28;20466;-58
2021/12/11 07:45:25;;;;;;;18.50;6.43;;;;;;;-11.70;55.06;101555.75;5031643;28;20030;-57
2021/12/11 07:47:51;;;;;;;6.80;3.30;;;;;;;-11.60;54.59;101538.91;5031432;28;20489;-57
2021/12/11 07:50:18;;;;;;;9.75;4.60;;;;;;;-11.50;53.93;101545.28;5030570;28;20072;-61
2021/12/11 07:52:43;;;;;;;18.25;7.75;;;;;;;-11.62;54.31;101544.81;5031392;28;20543;-54
2021/12/11 07:55:09;;;;;;;19.75;6.65;;;;;;;-11.75;54.67;101528.88;5031459;28;20041;-59
2021/12/11 07:57:36;;;;;;;15.43;6.35;;;;;;;-11.57;55.01;101540.72;5030898;28;20025;-58
2021/12/11 08:00:04;;;;;;;15.30;6.85;;;;;;;-11.35;54.76;101542.41;5031419;28;20428;-54
2021/12/11 08:02:30;;;;;;;14.85;5.70;;;;;;;-11.41;54.81;101504.25;5031464;28;20079;-57
2021/12/11 08:04:56;;;;;;;15.85;7.10;;;;;;;-11.15;54.07;101540.53;5031108;28;20413;-55
2021/12/11 08:07:21;;;;;;;18.05;6.72;;;;;;;-11.07;53.83;101542.53;5031425;28;20117;-58
2021/12/11 08:09:47;;;;;;;18.25;7.13;;;;;;;-11.19;54.66;101538.66;5030203;28;20052;-60
2021/12/11 08:12:13;;;;;;;9.73;3.72;;;;;;;-10.93;54.24;101549.06;5013604;28;20033;-60
2021/12/11 08:14:38;;;;;;;15.13;6.32;;;;;;;-10.80;53.34;101545.19;5030133;28;20021;-56
2021/12/11 08:17:06;;;;;;;19.38;8.05;;;;;;;-10.85;53.85;101552.81;5031526;28;20030;-57
2021/12/11 08:19:33;;;;;;;17.42;7.18;;;;;;;-10.77;53.98;101570.31;5031422;28;20474;-57
2021/12/11 08:22:01;;;;;;;21.00;7.95;;;;;;;-10.84;53.75;101553.69;5031287;28;20029;-59
2021/12/11 08:24:28;;;;;;;16.23;6.90;;;;;;;-10.78;54.28;101543.53;5030745;28;20521;-53
2021/12/11 08:26:59;;;;;;;15.90;6.47;;;;;;;-10.64;53.39;101533.66;5030219;28;20397;-60
2021/12/11 08:29:25;;;;;;;14.68;5.40;;;;;;;-10.60;53.44;101543.31;5030057;28;20041;-60
2021/12/11 08:31:54;;;;;;;18.45;7.53;;;;;;;-10.74;52.81;101540.22;5030932;28;20064;-54
2021/12/11 08:34:20;;;;;;;18.17;7.68;;;;;;;-10.89;53.54;101550.06;5011588;28;20025;-59
2021/12/11 08:36:47;;;;;;;10.80;4.93;;;;;;;-10.80;53.68;101536.56;5028968;28;20832;-58
2021/12/11 08:39:16;;;;;;;12.18;5.90;;;;;;;-10.84;53.29;101539.03;5028821;28;20038;-61
2021/12/11 08:41:44;;;;;;;22.27;7.90;;;;;;;-11.06;54.11;101532.22;5028172;28;20072;-58
2021/12/11 08:44:13;;;;;;;8.73;4.15;;;;;;;-10.95;54.23;101540.38;5026948;28;20319;-59
2021/12/11 08:46:43;;;;;;;18.52;7.40;;;;;;;-10.97;54.63;101529.09;5027710;28;20022;-57
2021/12/11 08:49:16;;;;;;;16.10;7.43;;;;;;;-10.94;54.36;101525.72;5028610;28;20127;-61
2021/12/11 08:52:02;;;;;;;10.90;5.03;;;;;;;-11.08;54.43;101465.75;5026690;28;20390;-63
2021/12/11 08:54:29;;;;;;;15.90;7.13;;;;;;;-10.92;54.99;101499.06;5026606;28;20482;-62
2021/12/11 08:56:56;;;;;;;18.65;8.10;;;;;;;-10.72;53.83;101504.94;5028152;28;20030;-65
2021/12/11 08:59:25;;;;;;;21.58;8.13;;;;;;;-10.75;53.43;101510.00;5027528;28;20030;-55
2021/12/11 09:02:08;;;;;;;22.83;7.97;;;;;;;-10.90;55.12;101509.47;5027597;28;20029;-56
2021/12/11 09:04:55;;;;;;;19.35;8.27;;;;;;;-10.92;54.95;101493.03;5028003;28;20064;-56
2021/12/11 09:07:40;;;;;;;19.50;7.15;;;;;;;-10.94;54.70;101481.75;5032466;28;20045;-54
2021/12/11 09:10:12;;;;;;;20.13;8.00;;;;;;;-10.94;54.57;101463.63;5032446;28;20038;-54
2021/12/11 09:12:47;;;;;;;18.77;7.32;;;;;;;-10.52;53.55;101504.69;5014804;28;20091;-54
2021/12/11 09:15:22;;;;;;;20.45;8.13;;;;;;;-10.61;53.24;101507.91;5030616;28;20060;-54
2021/12/11 09:17:58;;;;;;;23.20;9.20;;;;;;;-10.74;53.23;101503.13;5030285;28;20381;-55
2021/12/11 09:20:50;;;;;;;19.35;7.60;;;;;;;-10.85;54.08;101497.56;5013866;28;20040;-56
2021/12/11 09:23:24;;;;;;;23.00;7.88;;;;;;;-10.97;53.79;101504.09;5031785;28;20065;-57
2021/12/11 09:25:49;;;;;;;19.73;7.38;;;;;;;-10.83;53.81;101494.22;5033191;28;20037;-53
2021/12/11 09:28:32;;;;;;;16.05;8.13;;;;;;;-10.85;54.35;101490.72;5033674;28;20409;-57
2021/12/11 09:31:05;;;;;;;18.50;7.00;;;;;;;-10.78;53.90;101491.78;5032748;28;20037;-55
2021/12/11 09:33:36;;;;;;;18.35;7.35;;;;;;;-10.80;54.03;101477.03;5032647;28;20129;-58
2021/12/11 09:36:09;;;;;;;21.25;8.30;;;;;;;-10.88;54.26;101490.56;5033153;28;20033;-61
2021/12/11 09:38:39;;;;;;;18.92;7.72;;;;;;;-10.76;53.86;101486.66;5033865;28;20061;-57
2021/12/11 09:41:26;;;;;;;19.00;7.65;;;;;;;-10.70;54.81;101480.00;5033592;28;20449;-57
2021/12/11 09:43:55;;;;;;;17.63;6.65;;;;;;;-10.51;54.09;101492.66;5033507;28;20026;-51
2021/12/11 09:46:29;;;;;;;20.83;8.43;;;;;;;-10.54;54.16;101481.38;5033893;28;20087;-56
2021/12/11 09:48:56;;;;;;;23.50;8.55;;;;;;;-10.62;54.60;101477.63;5032474;28;20461;-54
2021/12/11 09:51:27;;;;;;;24.67;8.25;;;;;;;-10.53;54.16;101482.22;5032312;28;20030;-59
2021/12/11 09:53:57;;;;;;;19.20;8.65;;;;;;;-10.39;54.66;101486.13;5033653;28;20079;-58
2021/12/11 09:56:40;;;;;;;24.38;9.15;;;;;;;-10.57;53.94;101446.72;5033713;28;20045;-58
2021/12/11 09:59:09;;;;;;;18.98;7.55;;;;;;;-10.33;53.52;101480.28;5033137;28;20033;-51
2021/12/11 10:01:40;;;;;;;21.13;8.73;;;;;;;-10.55;54.89;101486.47;5032735;28;20467;-56
2021/12/11 10:04:19;;;;;;;19.42;8.68;;;;;;;-10.59;55.04;101476.88;5033673;28;20051;-55
2021/12/11 10:07:23;;;;;;;19.25;8.25;;;;;;;-10.50;54.59;101486.66;5032853;28;20033;-58
2021/12/11 10:09:46;;;;;;;22.30;9.15;;;;;;;-10.33;54.23;101472.50;5031334;28;20033;-58
2021/12/11 10:12:17;;;;;;;22.67;8.65;;;;;;;-10.32;53.95;101470.78;5031985;28;20033;-56
2021/12/11 10:14:50;;;;;;;22.35;8.77;;;;;;;-10.73;54.46;101428.13;5032721;28;20033;-54
2021/12/11 10:17:21;;;;;;;18.98;8.88;;;;;;;-10.50;55.12;101478.88;5029878;28;20029;-55
2021/12/11 10:19:48;;;;;;;21.80;9.18;;;;;;;-10.46;54.60;101458.31;5032204;28;20034;-57
2021/12/11 10:22:16;;;;;;;23.80;9.85;;;;;;;-10.46;54.35;101460.03;5032946;28;20030;-58
2021/12/11 10:24:42;;;;;;;24.42;9.20;;;;;;;-10.43;55.02;101463.59;5036770;28;20053;-59
2021/12/11 10:27:11;;;;;;;18.00;8.90;;;;;;;-10.35;54.57;101444.78;5032670;28;20040;-56
2021/12/11 10:29:37;;;;;;;15.10;6.80;;;;;;;-10.27;54.10;101462.31;5032498;28;20095;-57
2021/12/11 10:32:10;;;;;;;23.80;9.70;;;;;;;-10.33;54.11;101456.97;5032970;28;20450;-58
2021/12/11 10:34:37;;;;;;;15.27;7.70;;;;;;;-10.31;53.96;101455.31;5031749;28;20342;-56
2021/12/11 10:37:14;;;;;;;18.70;8.82;;;;;;;-10.44;54.81;101460.94;5031435;28;20079;-52
2021/12/11 10:39:43;;;;;;;22.95;8.77;;;;;;;-10.37;54.32;101457.66;5032466;28;20110;-58
2021/12/11 10:42:09;;;;;;;22.35;10.07;;;;;;;-10.35;54.25;101452.56;5033189;28;20048;-58
2021/12/11 10:44:39;;;;;;;25.88;9.65;;;;;;;-10.70;54.85;101411.81;5033096;28;20446;-57
2021/12/11 10:47:18;;;;;;;17.25;7.57;;;;;;;-10.41;55.22;101448.09;5032862;28;20116;-58
2021/12/11 10:49:46;;;;;;;20.27;8.85;;;;;;;-10.40;54.79;101437.75;5031855;28;20353;-58
2021/12/11 10:52:17;;;;;;;24.98;9.50;;;;;;;-10.32;54.79;101447.47;5032184;28;20116;-54
2021/12/11 10:54:45;;;;;;;23.42;9.68;;;;;;;-10.32;54.52;101437.09;5033182;28;20022;-57
2021/12/11 10:57:11;;;;;;;18.80;9.10;;;;;;;-10.45;54.88;101431.59;5033050;28;20373;-57
2021/12/11 10:59:42;;;;;;;18.17;6.07;;;;;;;-10.44;54.93;101435.06;5032882;28;20026;-58
2021/12/11 11:02:28;;;;;;;24.67;9.55;;;;;;;-10.53;55.43;101431.34;5033041;28;20082;-55
2021/12/11 11:04:58;;;;;;;12.55;6.05;;;;;;;-10.46;55.09;101432.44;5031553;28;20057;-57
2021/12/11 11:07:26;;;;;;;10.15;4.75;;;;;;;-10.25;54.83;101442.53;5031201;28;20480;-54
2021/12/11 11:09:54;;;;;;;19.40;8.80;;;;;;;-10.27;54.21;101444.19;5032548;28;20029;-57
2021/12/11 11:12:27;;;;;;;13.98;4.85;;;;;;;-10.32;54.36;101450.06;5032564;28;20048;-53
2021/12/11 11:14:54;;;;;;;24.20;11.13;;;;;;;-10.57;54.69;101439.84;5032658;28;20025;-53
2021/12/11 11:17:23;;;;;;;22.50;9.60;;;;;;;-10.90;55.43;101412.03;5032635;28;20172;-55
2021/12/11 11:19:50;;;;;;;10.60;4.63;;;;;;;-10.56;55.64;101451.06;5032451;28;20059;-57
2021/12/11 11:22:21;;;;;;;25.20;10.23;;;;;;;-10.38;55.10;101448.16;5032462;28;20022;-58
2021/12/11 11:24:54;;;;;;;15.48;7.68;;;;;;;-10.42;55.01;101454.09;5032009;28;20040;-54
2021/12/11 11:27:20;;;;;;;17.13;8.27;;;;;;;-10.56;55.20;101443.31;5032301;28;20034;-53
2021/12/11 11:29:48;;;;;;;26.02;9.80;;;;;;;-10.74;56.21;101446.19;5031330;28;20056;-55
2021/12/11 11:32:31;;;;;;;12.20;5.45;;;;;;;-10.63;55.92;101436.19;5032118;28;20036;-55
2021/12/11 11:35:02;;;;;;;20.15;8.20;;;;;;;-10.62;55.69;101438.81;5032410;28;20025;-55
2021/12/11 11:37:29;;;;;;;16.75;5.53;;;;;;;-10.71;55.28;101399.69;5032101;28;20049;-54
2021/12/11 11:39:55;;;;;;;25.75;10.10;;;;;;;-10.94;55.72;101383.44;5031784;28;20048;-57
2021/12/11 11:42:21;;;;;;;26.70;9.85;;;;;;;-10.68;56.14;101418.81;5032331;28;20029;-56
2021/12/11 11:44:48;;;;;;;22.40;9.25;;;;;;;-10.65;55.74;101414.56;5031754;28;20025;-54
2021/12/11 11:47:18;;;;;;;23.58;8.93;;;;;;;-10.71;56.12;101423.88;5030140;28;20053;-55